sensor_id;sensor_type;location;lat;lon;timestamp;temperature;humidity
51922;DHT22;37948;53.260;6.394;2022-12-08T00:00:09;2.40;99.90
51922;DHT22;37948;53.260;6.394;2022-12-08T00:02:34;2.40;99.90
51922;DHT22;37948;53.260;6.394;2022-12-08T00:05:00;2.50;99.90
51922;DHT22;37948;53.260;6.394;2022-12-08T00:07:44;2.50;99.90
51922;DHT22;37948;53.260;6.394;2022-12-08T00:10:28;2.50;99.90
51922;DHT22;37948;53.260;6.394;2022-12-08T00:12:54;2.60;99.90
51922;DHT22;37948;53.260;6.394;2022-12-08T00:15:19;2.60;99.90
51922;DHT22;37948;53.260;6.394;2022-12-08T00:17:45;2.60;99.90
51922;DHT22;37948;53.260;6.394;2022-12-08T00:20:10;2.60;99.90
51922;DHT22;37948;53.260;6.394;2022-12-08T00:22:36;2.60;99.90
51922;DHT22;37948;53.260;6.394;2022-12-08T00:25:02;2.60;99.90
51922;DHT22;37948;53.260;6.394;2022-12-08T00:27:27;2.70;99.90
51922;DHT22;37948;53.260;6.394;2022-12-08T00:29:53;2.60;99.90
51922;DHT22;37948;53.260;6.394;2022-12-08T00:32:18;2.60;99.90
51922;DHT22;37948;53.260;6.394;2022-12-08T00:34:44;2.60;99.90
51922;DHT22;37948;53.260;6.394;2022-12-08T00:37:09;2.60;99.90
51922;DHT22;37948;53.260;6.394;2022-12-08T00:39:35;2.60;99.90
51922;DHT22;37948;53.260;6.394;2022-12-08T00:42:01;2.60;99.90
51922;DHT22;37948;53.260;6.394;2022-12-08T00:44:43;2.60;99.90
51922;DHT22;37948;53.260;6.394;2022-12-08T00:47:09;2.60;99.90
51922;DHT22;37948;53.260;6.394;2022-12-08T00:49:35;2.60;99.90
51922;DHT22;37948;53.260;6.394;2022-12-08T00:52:01;2.50;99.90
51922;DHT22;37948;53.260;6.394;2022-12-08T00:54:26;2.50;99.90
51922;DHT22;37948;53.260;6.394;2022-12-08T00:56:52;2.40;99.90
51922;DHT22;37948;53.260;6.394;2022-12-08T00:59:18;2.40;99.90
51922;DHT22;37948;53.260;6.394;2022-12-08T01:01:44;2.30;99.90
51922;DHT22;37948;53.260;6.394;2022-12-08T01:04:13;2.30;99.90
51922;DHT22;37948;53.260;6.394;2022-12-08T01:06:40;2.30;99.90
51922;DHT22;37948;53.260;6.394;2022-12-08T01:09:07;2.30;99.90
51922;DHT22;37948;53.260;6.394;2022-12-08T01:11:33;2.30;99.90
51922;DHT22;37948;53.260;6.394;2022-12-08T01:13:59;2.40;99.90
51922;DHT22;37948;53.260;6.394;2022-12-08T01:16:27;2.30;99.90
51922;DHT22;37948;53.260;6.394;2022-12-08T01:18:53;2.30;99.90
51922;DHT22;37948;53.260;6.394;2022-12-08T01:21:19;2.30;99.90
51922;DHT22;37948;53.260;6.394;2022-12-08T01:23:45;2.30;99.90
51922;DHT22;37948;53.260;6.394;2022-12-08T01:26:14;2.30;99.90
51922;DHT22;37948;53.260;6.394;2022-12-08T01:28:40;2.30;99.90
51922;DHT22;37948;53.260;6.394;2022-12-08T01:31:15;2.30;99.90
51922;DHT22;37948;53.260;6.394;2022-12-08T01:33:41;2.40;99.90
51922;DHT22;37948;53.260;6.394;2022-12-08T01:36:08;2.40;99.90
51922;DHT22;37948;53.260;6.394;2022-12-08T01:38:42;2.40;99.90
51922;DHT22;37948;53.260;6.394;2022-12-08T01:41:12;2.50;99.90
51922;DHT22;37948;53.260;6.394;2022-12-08T01:44:45;2.50;99.90
51922;DHT22;37948;53.260;6.394;2022-12-08T01:46:47;2.50;99.90
51922;DHT22;37948;53.260;6.394;2022-12-08T01:49:28;2.50;99.90
51922;DHT22;37948;53.260;6.394;2022-12-08T01:52:12;2.50;99.90
51922;DHT22;37948;53.260;6.394;2022-12-08T01:54:44;2.60;99.90
51922;DHT22;37948;53.260;6.394;2022-12-08T01:57:16;2.60;99.90
51922;DHT22;37948;53.260;6.394;2022-12-08T01:59:47;2.60;99.90
51922;DHT22;37948;53.260;6.394;2022-12-08T02:02:14;2.70;99.90
51922;DHT22;37948;53.260;6.394;2022-12-08T02:04:39;2.70;99.90
51922;DHT22;37948;53.260;6.394;2022-12-08T02:07:06;2.70;99.90
51922;DHT22;37948;53.260;6.394;2022-12-08T02:09:32;2.70;99.90
51922;DHT22;37948;53.260;6.394;2022-12-08T02:11:58;2.60;99.90
51922;DHT22;37948;53.260;6.394;2022-12-08T02:14:24;2.60;99.90
51922;DHT22;37948;53.260;6.394;2022-12-08T02:17:02;2.50;99.90
51922;DHT22;37948;53.260;6.394;2022-12-08T02:22:34;2.50;99.90
51922;DHT22;37948;53.260;6.394;2022-12-08T02:34:44;2.40;99.90
51922;DHT22;37948;53.260;6.394;2022-12-08T02:37:32;2.40;99.90
51922;DHT22;37948;53.260;6.394;2022-12-08T02:42:41;2.40;99.90
51922;DHT22;37948;53.260;6.394;2022-12-08T02:45:33;2.40;99.90
51922;DHT22;37948;53.260;6.394;2022-12-08T02:48:00;2.30;99.90
51922;DHT22;37948;53.260;6.394;2022-12-08T02:50:27;2.30;99.90
51922;DHT22;37948;53.260;6.394;2022-12-08T02:52:53;2.30;99.90
51922;DHT22;37948;53.260;6.394;2022-12-08T02:55:29;2.30;99.90
51922;DHT22;37948;53.260;6.394;2022-12-08T03:01:19;2.30;99.90
51922;DHT22;37948;53.260;6.394;2022-12-08T03:14:23;2.30;99.90
51922;DHT22;37948;53.260;6.394;2022-12-08T03:16:51;2.30;99.90
51922;DHT22;37948;53.260;6.394;2022-12-08T03:19:25;2.40;99.90
51922;DHT22;37948;53.260;6.394;2022-12-08T03:21:53;2.40;99.90
51922;DHT22;37948;53.260;6.394;2022-12-08T03:24:24;2.40;99.90
51922;DHT22;37948;53.260;6.394;2022-12-08T03:26:57;2.40;99.90
51922;DHT22;37948;53.260;6.394;2022-12-08T03:29:24;2.40;99.90
51922;DHT22;37948;53.260;6.394;2022-12-08T03:31:56;2.40;99.90
51922;DHT22;37948;53.260;6.394;2022-12-08T03:34:25;2.40;99.90
51922;DHT22;37948;53.260;6.394;2022-12-08T03:36:52;2.40;99.90
51922;DHT22;37948;53.260;6.394;2022-12-08T03:39:17;2.40;99.90
51922;DHT22;37948;53.260;6.394;2022-12-08T03:41:44;2.40;99.90
51922;DHT22;37948;53.260;6.394;2022-12-08T03:44:10;2.40;99.90
51922;DHT22;37948;53.260;6.394;2022-12-08T03:46:35;2.40;99.90
51922;DHT22;37948;53.260;6.394;2022-12-08T03:49:01;2.40;99.90
51922;DHT22;37948;53.260;6.394;2022-12-08T03:51:26;2.40;99.90
51922;DHT22;37948;53.260;6.394;2022-12-08T03:53:52;2.40;99.90
51922;DHT22;37948;53.260;6.394;2022-12-08T03:56:30;2.40;99.90
51922;DHT22;37948;53.260;6.394;2022-12-08T03:58:56;2.40;99.90
51922;DHT22;37948;53.260;6.394;2022-12-08T04:01:22;2.40;99.90
51922;DHT22;37948;53.260;6.394;2022-12-08T04:03:48;2.40;99.90
51922;DHT22;37948;53.260;6.394;2022-12-08T04:06:14;2.40;99.90
51922;DHT22;37948;53.260;6.394;2022-12-08T04:08:40;2.40;99.90
51922;DHT22;37948;53.260;6.394;2022-12-08T04:11:06;2.40;99.90
51922;DHT22;37948;53.260;6.394;2022-12-08T04:13:37;2.50;99.90
51922;DHT22;37948;53.260;6.394;2022-12-08T04:16:03;2.50;99.90
51922;DHT22;37948;53.260;6.394;2022-12-08T04:18:30;2.50;99.90
51922;DHT22;37948;53.260;6.394;2022-12-08T04:20:55;2.50;99.90
51922;DHT22;37948;53.260;6.394;2022-12-08T04:23:21;2.50;99.90
51922;DHT22;37948;53.260;6.394;2022-12-08T04:25:46;2.50;99.90
51922;DHT22;37948;53.260;6.394;2022-12-08T04:28:12;2.50;99.90
51922;DHT22;37948;53.260;6.394;2022-12-08T04:30:38;2.50;99.90
51922;DHT22;37948;53.260;6.394;2022-12-08T04:33:04;2.50;99.90
51922;DHT22;37948;53.260;6.394;2022-12-08T04:35:29;2.50;99.90
51922;DHT22;37948;53.260;6.394;2022-12-08T04:37:55;2.50;99.90
51922;DHT22;37948;53.260;6.394;2022-12-08T04:40:20;2.40;99.90
51922;DHT22;37948;53.260;6.394;2022-12-08T04:42:46;2.40;99.90
51922;DHT22;37948;53.260;6.394;2022-12-08T04:45:12;2.40;99.90
51922;DHT22;37948;53.260;6.394;2022-12-08T04:47:37;2.40;99.90
51922;DHT22;37948;53.260;6.394;2022-12-08T04:50:04;2.40;99.90
51922;DHT22;37948;53.260;6.394;2022-12-08T04:52:30;2.40;99.90
51922;DHT22;37948;53.260;6.394;2022-12-08T04:54:56;2.40;99.90
51922;DHT22;37948;53.260;6.394;2022-12-08T04:57:21;2.40;99.90
51922;DHT22;37948;53.260;6.394;2022-12-08T04:59:47;2.40;99.90
51922;DHT22;37948;53.260;6.394;2022-12-08T05:02:12;2.40;99.90
51922;DHT22;37948;53.260;6.394;2022-12-08T05:04:38;2.40;99.90
51922;DHT22;37948;53.260;6.394;2022-12-08T05:07:04;2.40;99.90
51922;DHT22;37948;53.260;6.394;2022-12-08T05:09:29;2.40;99.90
51922;DHT22;37948;53.260;6.394;2022-12-08T05:11:55;2.30;99.90
51922;DHT22;37948;53.260;6.394;2022-12-08T05:14:21;2.40;99.90
51922;DHT22;37948;53.260;6.394;2022-12-08T05:16:47;2.40;99.90
51922;DHT22;37948;53.260;6.394;2022-12-08T05:19:13;2.40;99.90
51922;DHT22;37948;53.260;6.394;2022-12-08T05:21:39;2.30;99.90
51922;DHT22;37948;53.260;6.394;2022-12-08T05:24:05;2.30;99.90
51922;DHT22;37948;53.260;6.394;2022-12-08T05:26:31;2.30;99.90
51922;DHT22;37948;53.260;6.394;2022-12-08T05:28:56;2.30;99.90
51922;DHT22;37948;53.260;6.394;2022-12-08T05:31:22;2.30;99.90
51922;DHT22;37948;53.260;6.394;2022-12-08T05:33:49;2.20;99.90
51922;DHT22;37948;53.260;6.394;2022-12-08T05:36:15;2.20;99.90
51922;DHT22;37948;53.260;6.394;2022-12-08T05:38:42;2.20;99.90
51922;DHT22;37948;53.260;6.394;2022-12-08T05:41:09;2.20;99.90
51922;DHT22;37948;53.260;6.394;2022-12-08T05:43:36;2.20;99.90
51922;DHT22;37948;53.260;6.394;2022-12-08T05:46:02;2.20;99.90
51922;DHT22;37948;53.260;6.394;2022-12-08T05:48:27;2.20;99.90
51922;DHT22;37948;53.260;6.394;2022-12-08T05:50:54;2.20;99.90
51922;DHT22;37948;53.260;6.394;2022-12-08T05:53:20;2.20;99.90
51922;DHT22;37948;53.260;6.394;2022-12-08T05:55:46;2.20;99.90
51922;DHT22;37948;53.260;6.394;2022-12-08T05:58:13;2.10;99.90
51922;DHT22;37948;53.260;6.394;2022-12-08T06:00:40;2.10;99.90
51922;DHT22;37948;53.260;6.394;2022-12-08T06:03:05;2.10;99.90
51922;DHT22;37948;53.260;6.394;2022-12-08T06:05:32;2.10;99.90
51922;DHT22;37948;53.260;6.394;2022-12-08T06:07:58;2.10;99.90
51922;DHT22;37948;53.260;6.394;2022-12-08T06:10:24;2.10;99.90
51922;DHT22;37948;53.260;6.394;2022-12-08T06:12:49;2.10;99.90
51922;DHT22;37948;53.260;6.394;2022-12-08T06:15:15;2.10;99.90
51922;DHT22;37948;53.260;6.394;2022-12-08T06:17:40;2.10;99.90
51922;DHT22;37948;53.260;6.394;2022-12-08T06:20:06;2.10;99.90
51922;DHT22;37948;53.260;6.394;2022-12-08T06:22:32;2.10;99.90
51922;DHT22;37948;53.260;6.394;2022-12-08T06:24:58;2.10;99.90
51922;DHT22;37948;53.260;6.394;2022-12-08T06:27:23;2.00;99.90
51922;DHT22;37948;53.260;6.394;2022-12-08T06:29:49;2.00;99.90
51922;DHT22;37948;53.260;6.394;2022-12-08T06:32:15;1.90;99.90
51922;DHT22;37948;53.260;6.394;2022-12-08T06:34:40;1.90;99.90
51922;DHT22;37948;53.260;6.394;2022-12-08T06:37:06;1.80;99.90
51922;DHT22;37948;53.260;6.394;2022-12-08T06:39:31;1.80;99.90
51922;DHT22;37948;53.260;6.394;2022-12-08T06:41:57;1.80;99.90
51922;DHT22;37948;53.260;6.394;2022-12-08T06:44:41;1.80;99.90
51922;DHT22;37948;53.260;6.394;2022-12-08T06:47:07;1.80;99.90
51922;DHT22;37948;53.260;6.394;2022-12-08T06:49:32;1.80;99.90
51922;DHT22;37948;53.260;6.394;2022-12-08T06:51:58;1.80;99.90
51922;DHT22;37948;53.260;6.394;2022-12-08T06:54:23;1.80;99.90
51922;DHT22;37948;53.260;6.394;2022-12-08T06:56:49;1.80;99.90
51922;DHT22;37948;53.260;6.394;2022-12-08T06:59:15;1.80;99.90
51922;DHT22;37948;53.260;6.394;2022-12-08T07:01:42;1.80;99.90
51922;DHT22;37948;53.260;6.394;2022-12-08T07:04:07;1.80;99.90
51922;DHT22;37948;53.260;6.394;2022-12-08T07:06:33;1.70;99.90
51922;DHT22;37948;53.260;6.394;2022-12-08T07:08:58;1.70;99.90
51922;DHT22;37948;53.260;6.394;2022-12-08T07:11:24;1.60;99.90
51922;DHT22;37948;53.260;6.394;2022-12-08T07:13:54;1.50;99.90
51922;DHT22;37948;53.260;6.394;2022-12-08T07:16:21;1.50;99.90
51922;DHT22;37948;53.260;6.394;2022-12-08T07:18:47;1.50;99.90
51922;DHT22;37948;53.260;6.394;2022-12-08T07:21:13;1.40;99.90
51922;DHT22;37948;53.260;6.394;2022-12-08T07:23:44;1.40;99.90
51922;DHT22;37948;53.260;6.394;2022-12-08T07:26:11;1.40;99.90
51922;DHT22;37948;53.260;6.394;2022-12-08T07:28:38;1.40;99.90
51922;DHT22;37948;53.260;6.394;2022-12-08T07:31:05;1.40;99.90
51922;DHT22;37948;53.260;6.394;2022-12-08T07:33:31;1.40;99.90
51922;DHT22;37948;53.260;6.394;2022-12-08T07:36:01;1.40;99.90
51922;DHT22;37948;53.260;6.394;2022-12-08T07:38:28;1.40;99.90
51922;DHT22;37948;53.260;6.394;2022-12-08T07:40:53;1.30;99.90
51922;DHT22;37948;53.260;6.394;2022-12-08T07:43:20;1.30;99.90
51922;DHT22;37948;53.260;6.394;2022-12-08T07:45:46;1.30;99.90
51922;DHT22;37948;53.260;6.394;2022-12-08T07:48:11;1.30;99.90
51922;DHT22;37948;53.260;6.394;2022-12-08T07:50:37;1.30;99.90
51922;DHT22;37948;53.260;6.394;2022-12-08T07:53:03;1.30;99.90
51922;DHT22;37948;53.260;6.394;2022-12-08T07:55:29;1.30;99.90
51922;DHT22;37948;53.260;6.394;2022-12-08T07:57:54;1.20;99.90
51922;DHT22;37948;53.260;6.394;2022-12-08T08:00:20;1.20;99.90
51922;DHT22;37948;53.260;6.394;2022-12-08T08:02:46;1.20;99.90
51922;DHT22;37948;53.260;6.394;2022-12-08T08:05:12;1.20;99.90
51922;DHT22;37948;53.260;6.394;2022-12-08T08:07:38;1.10;99.90
51922;DHT22;37948;53.260;6.394;2022-12-08T08:10:07;1.10;99.90
51922;DHT22;37948;53.260;6.394;2022-12-08T08:12:32;1.20;99.90
51922;DHT22;37948;53.260;6.394;2022-12-08T08:15:03;1.20;99.90
51922;DHT22;37948;53.260;6.394;2022-12-08T08:17:29;1.30;99.90
51922;DHT22;37948;53.260;6.394;2022-12-08T08:19:55;1.40;99.90
51922;DHT22;37948;53.260;6.394;2022-12-08T08:22:21;1.40;99.90
51922;DHT22;37948;53.260;6.394;2022-12-08T08:24:47;1.50;99.90
51922;DHT22;37948;53.260;6.394;2022-12-08T08:27:12;1.60;99.90
51922;DHT22;37948;53.260;6.394;2022-12-08T08:29:38;1.60;99.90
51922;DHT22;37948;53.260;6.394;2022-12-08T08:32:04;1.70;99.90
51922;DHT22;37948;53.260;6.394;2022-12-08T08:34:29;1.60;99.90
51922;DHT22;37948;53.260;6.394;2022-12-08T08:36:55;1.60;99.90
51922;DHT22;37948;53.260;6.394;2022-12-08T08:39:21;1.60;99.90
51922;DHT22;37948;53.260;6.394;2022-12-08T08:41:46;1.60;99.90
51922;DHT22;37948;53.260;6.394;2022-12-08T08:44:13;1.60;99.90
51922;DHT22;37948;53.260;6.394;2022-12-08T08:46:39;1.70;99.90
51922;DHT22;37948;53.260;6.394;2022-12-08T08:49:05;1.70;99.90
51922;DHT22;37948;53.260;6.394;2022-12-08T08:51:30;1.70;99.90
51922;DHT22;37948;53.260;6.394;2022-12-08T08:53:56;1.70;99.90
51922;DHT22;37948;53.260;6.394;2022-12-08T08:56:22;1.80;99.90
51922;DHT22;37948;53.260;6.394;2022-12-08T08:58:49;1.80;99.90
51922;DHT22;37948;53.260;6.394;2022-12-08T09:01:26;1.80;99.90
51922;DHT22;37948;53.260;6.394;2022-12-08T09:03:53;1.80;99.90
51922;DHT22;37948;53.260;6.394;2022-12-08T09:06:20;1.90;99.90
51922;DHT22;37948;53.260;6.394;2022-12-08T09:08:46;1.80;99.90
51922;DHT22;37948;53.260;6.394;2022-12-08T09:11:12;1.90;99.90
51922;DHT22;37948;53.260;6.394;2022-12-08T09:13:38;1.90;99.90
51922;DHT22;37948;53.260;6.394;2022-12-08T09:16:06;1.90;99.90
51922;DHT22;37948;53.260;6.394;2022-12-08T09:18:32;2.00;99.90
51922;DHT22;37948;53.260;6.394;2022-12-08T09:21:09;2.00;99.90
51922;DHT22;37948;53.260;6.394;2022-12-08T09:23:37;2.00;99.90
51922;DHT22;37948;53.260;6.394;2022-12-08T09:26:03;2.00;99.90
51922;DHT22;37948;53.260;6.394;2022-12-08T09:28:29;2.00;99.90
51922;DHT22;37948;53.260;6.394;2022-12-08T09:30:55;2.10;99.90
51922;DHT22;37948;53.260;6.394;2022-12-08T09:33:21;2.10;99.90
51922;DHT22;37948;53.260;6.394;2022-12-08T09:35:46;2.20;99.90
51922;DHT22;37948;53.260;6.394;2022-12-08T09:38:12;2.20;99.90
51922;DHT22;37948;53.260;6.394;2022-12-08T09:40:58;2.30;99.90
51922;DHT22;37948;53.260;6.394;2022-12-08T09:46:00;2.30;99.90
51922;DHT22;37948;53.260;6.394;2022-12-08T09:48:38;2.30;99.90
51922;DHT22;37948;53.260;6.394;2022-12-08T09:51:07;2.30;99.90
51922;DHT22;37948;53.260;6.394;2022-12-08T09:53:38;2.30;99.90
51922;DHT22;37948;53.260;6.394;2022-12-08T09:56:20;2.30;99.90
51922;DHT22;37948;53.260;6.394;2022-12-08T09:58:57;2.30;99.90
51922;DHT22;37948;53.260;6.394;2022-12-08T10:01:30;2.30;99.90
51922;DHT22;37948;53.260;6.394;2022-12-08T10:03:56;2.40;99.90
51922;DHT22;37948;53.260;6.394;2022-12-08T10:09:58;2.50;99.90
51922;DHT22;37948;53.260;6.394;2022-12-08T10:12:42;2.50;99.90
51922;DHT22;37948;53.260;6.394;2022-12-08T10:15:46;2.50;99.90
51922;DHT22;37948;53.260;6.394;2022-12-08T10:18:17;2.60;99.90
51922;DHT22;37948;53.260;6.394;2022-12-08T10:20:45;2.50;99.90
51922;DHT22;37948;53.260;6.394;2022-12-08T10:25:44;2.60;99.90
51922;DHT22;37948;53.260;6.394;2022-12-08T10:28:11;2.70;99.90
51922;DHT22;37948;53.260;6.394;2022-12-08T10:30:37;2.70;99.90
51922;DHT22;37948;53.260;6.394;2022-12-08T10:33:02;2.80;99.90
51922;DHT22;37948;53.260;6.394;2022-12-08T10:35:46;2.80;99.90
51922;DHT22;37948;53.260;6.394;2022-12-08T10:40:42;2.90;99.90
51922;DHT22;37948;53.260;6.394;2022-12-08T10:43:16;2.90;99.90
51922;DHT22;37948;53.260;6.394;2022-12-08T10:45:42;2.90;99.90
51922;DHT22;37948;53.260;6.394;2022-12-08T10:48:21;3.00;99.90
51922;DHT22;37948;53.260;6.394;2022-12-08T10:50:55;3.00;99.90
51922;DHT22;37948;53.260;6.394;2022-12-08T10:53:28;3.10;99.90
51922;DHT22;37948;53.260;6.394;2022-12-08T10:58:35;3.20;99.90
51922;DHT22;37948;53.260;6.394;2022-12-08T11:01:25;3.30;99.90
51922;DHT22;37948;53.260;6.394;2022-12-08T11:04:00;3.40;99.90
51922;DHT22;37948;53.260;6.394;2022-12-08T11:06:36;3.40;99.90
51922;DHT22;37948;53.260;6.394;2022-12-08T11:12:21;3.50;99.90
51922;DHT22;37948;53.260;6.394;2022-12-08T11:14:55;3.50;99.90
51922;DHT22;37948;53.260;6.394;2022-12-08T11:17:26;3.60;99.90
51922;DHT22;37948;53.260;6.394;2022-12-08T11:25:07;3.30;99.90
51922;DHT22;37948;53.260;6.394;2022-12-08T11:27:41;3.20;99.90
51922;DHT22;37948;53.260;6.394;2022-12-08T11:30:19;3.10;99.90
51922;DHT22;37948;53.260;6.394;2022-12-08T11:32:47;3.00;99.90
51922;DHT22;37948;53.260;6.394;2022-12-08T11:35:36;3.00;99.90
51922;DHT22;37948;53.260;6.394;2022-12-08T11:38:14;2.90;99.90
51922;DHT22;37948;53.260;6.394;2022-12-08T11:40:42;2.90;99.90
51922;DHT22;37948;53.260;6.394;2022-12-08T11:46:16;2.90;99.90
51922;DHT22;37948;53.260;6.394;2022-12-08T11:56:50;3.00;99.90
51922;DHT22;37948;53.260;6.394;2022-12-08T11:59:36;3.00;99.90
51922;DHT22;37948;53.260;6.394;2022-12-08T12:02:04;3.00;99.90
51922;DHT22;37948;53.260;6.394;2022-12-08T12:18:27;3.20;99.90
51922;DHT22;37948;53.260;6.394;2022-12-08T12:21:10;3.20;99.90
51922;DHT22;37948;53.260;6.394;2022-12-08T12:23:56;3.30;99.90
51922;DHT22;37948;53.260;6.394;2022-12-08T12:26:29;3.40;99.90
51922;DHT22;37948;53.260;6.394;2022-12-08T12:31:38;3.40;99.90
51922;DHT22;37948;53.260;6.394;2022-12-08T12:34:46;3.50;99.90
51922;DHT22;37948;53.260;6.394;2022-12-08T12:37:19;3.50;99.90
51922;DHT22;37948;53.260;6.394;2022-12-08T12:42:46;3.40;99.90
51922;DHT22;37948;53.260;6.394;2022-12-08T12:50:50;3.50;99.90
51922;DHT22;37948;53.260;6.394;2022-12-08T13:03:43;3.50;99.90
51922;DHT22;37948;53.260;6.394;2022-12-08T13:06:10;3.50;99.90
51922;DHT22;37948;53.260;6.394;2022-12-08T13:08:39;3.40;99.90
51922;DHT22;37948;53.260;6.394;2022-12-08T13:11:13;3.40;99.90
51922;DHT22;37948;53.260;6.394;2022-12-08T13:13:55;3.40;99.90
51922;DHT22;37948;53.260;6.394;2022-12-08T13:16:24;3.30;99.90
51922;DHT22;37948;53.260;6.394;2022-12-08T13:18:56;3.30;99.90
51922;DHT22;37948;53.260;6.394;2022-12-08T13:21:24;3.30;99.90
51922;DHT22;37948;53.260;6.394;2022-12-08T13:26:44;3.30;99.90
51922;DHT22;37948;53.260;6.394;2022-12-08T13:29:21;3.20;99.90
51922;DHT22;37948;53.260;6.394;2022-12-08T13:31:50;3.20;99.90
51922;DHT22;37948;53.260;6.394;2022-12-08T13:40:04;3.20;99.90
51922;DHT22;37948;53.260;6.394;2022-12-08T13:45:29;3.10;99.90
51922;DHT22;37948;53.260;6.394;2022-12-08T13:48:11;3.10;99.90
51922;DHT22;37948;53.260;6.394;2022-12-08T13:50:42;3.10;99.90
51922;DHT22;37948;53.260;6.394;2022-12-08T13:55:45;3.10;99.90
51922;DHT22;37948;53.260;6.394;2022-12-08T13:58:26;3.10;99.90
51922;DHT22;37948;53.260;6.394;2022-12-08T14:03:22;3.10;99.90
51922;DHT22;37948;53.260;6.394;2022-12-08T14:05:48;3.10;99.90
51922;DHT22;37948;53.260;6.394;2022-12-08T14:08:29;3.10;99.90
51922;DHT22;37948;53.260;6.394;2022-12-08T14:11:02;3.10;99.90
51922;DHT22;37948;53.260;6.394;2022-12-08T14:13:30;3.00;99.90
51922;DHT22;37948;53.260;6.394;2022-12-08T14:15:56;3.00;99.90
51922;DHT22;37948;53.260;6.394;2022-12-08T14:18:27;3.00;99.90
51922;DHT22;37948;53.260;6.394;2022-12-08T14:20:58;3.00;99.90
51922;DHT22;37948;53.260;6.394;2022-12-08T14:23:24;3.00;99.90
51922;DHT22;37948;53.260;6.394;2022-12-08T14:25:50;2.90;99.90
51922;DHT22;37948;53.260;6.394;2022-12-08T14:28:15;2.80;99.90
51922;DHT22;37948;53.260;6.394;2022-12-08T14:30:41;2.90;99.90
51922;DHT22;37948;53.260;6.394;2022-12-08T14:33:12;2.80;99.90
51922;DHT22;37948;53.260;6.394;2022-12-08T14:35:39;2.80;99.90
51922;DHT22;37948;53.260;6.394;2022-12-08T14:38:12;2.80;99.90
51922;DHT22;37948;53.260;6.394;2022-12-08T14:40:58;2.80;99.90
51922;DHT22;37948;53.260;6.394;2022-12-08T14:43:26;2.80;99.90
51922;DHT22;37948;53.260;6.394;2022-12-08T14:45:56;2.80;99.90
51922;DHT22;37948;53.260;6.394;2022-12-08T14:53:50;2.80;99.90
51922;DHT22;37948;53.260;6.394;2022-12-08T14:58:45;2.70;99.90
51922;DHT22;37948;53.260;6.394;2022-12-08T15:01:13;2.70;99.90
51922;DHT22;37948;53.260;6.394;2022-12-08T15:03:41;2.70;99.90
51922;DHT22;37948;53.260;6.394;2022-12-08T15:06:07;2.70;99.90
51922;DHT22;37948;53.260;6.394;2022-12-08T15:08:36;2.70;99.90
51922;DHT22;37948;53.260;6.394;2022-12-08T15:13:47;2.60;99.90
51922;DHT22;37948;53.260;6.394;2022-12-08T15:21:37;2.50;99.90
51922;DHT22;37948;53.260;6.394;2022-12-08T15:24:03;2.50;99.90
51922;DHT22;37948;53.260;6.394;2022-12-08T15:26:37;2.50;99.90
51922;DHT22;37948;53.260;6.394;2022-12-08T15:29:18;2.50;99.90
51922;DHT22;37948;53.260;6.394;2022-12-08T15:31:45;2.50;99.90
51922;DHT22;37948;53.260;6.394;2022-12-08T15:34:10;2.50;99.90
51922;DHT22;37948;53.260;6.394;2022-12-08T15:36:36;2.50;99.90
51922;DHT22;37948;53.260;6.394;2022-12-08T15:39:05;2.40;99.90
51922;DHT22;37948;53.260;6.394;2022-12-08T15:41:30;2.40;99.90
51922;DHT22;37948;53.260;6.394;2022-12-08T15:43:56;2.30;99.90
51922;DHT22;37948;53.260;6.394;2022-12-08T15:46:21;2.30;99.90
51922;DHT22;37948;53.260;6.394;2022-12-08T15:48:47;2.30;99.90
51922;DHT22;37948;53.260;6.394;2022-12-08T15:51:13;2.20;99.90
51922;DHT22;37948;53.260;6.394;2022-12-08T15:53:38;2.20;99.90
51922;DHT22;37948;53.260;6.394;2022-12-08T15:56:06;2.20;99.90
51922;DHT22;37948;53.260;6.394;2022-12-08T15:58:32;2.10;99.90
51922;DHT22;37948;53.260;6.394;2022-12-08T16:00:57;2.10;99.90
51922;DHT22;37948;53.260;6.394;2022-12-08T16:03:28;2.00;99.90
51922;DHT22;37948;53.260;6.394;2022-12-08T16:05:57;2.00;99.90
51922;DHT22;37948;53.260;6.394;2022-12-08T16:08:27;2.00;99.90
51922;DHT22;37948;53.260;6.394;2022-12-08T16:10:52;2.00;99.90
51922;DHT22;37948;53.260;6.394;2022-12-08T16:13:38;1.90;99.90
51922;DHT22;37948;53.260;6.394;2022-12-08T16:16:17;1.90;99.90
51922;DHT22;37948;53.260;6.394;2022-12-08T16:18:47;1.90;99.90
51922;DHT22;37948;53.260;6.394;2022-12-08T16:21:13;1.90;99.90
51922;DHT22;37948;53.260;6.394;2022-12-08T16:23:39;1.90;99.90
51922;DHT22;37948;53.260;6.394;2022-12-08T16:26:07;1.80;99.90
51922;DHT22;37948;53.260;6.394;2022-12-08T16:28:34;1.70;99.90
51922;DHT22;37948;53.260;6.394;2022-12-08T16:31:00;1.80;99.90
51922;DHT22;37948;53.260;6.394;2022-12-08T16:33:26;1.80;99.90
51922;DHT22;37948;53.260;6.394;2022-12-08T16:35:51;1.80;99.90
51922;DHT22;37948;53.260;6.394;2022-12-08T16:38:17;1.80;99.90
51922;DHT22;37948;53.260;6.394;2022-12-08T16:40:46;1.70;99.90
51922;DHT22;37948;53.260;6.394;2022-12-08T16:43:44;1.70;99.90
51922;DHT22;37948;53.260;6.394;2022-12-08T16:46:17;1.70;99.90
51922;DHT22;37948;53.260;6.394;2022-12-08T16:48:43;1.70;99.90
51922;DHT22;37948;53.260;6.394;2022-12-08T16:51:19;1.70;99.90
51922;DHT22;37948;53.260;6.394;2022-12-08T16:53:45;1.70;99.90
51922;DHT22;37948;53.260;6.394;2022-12-08T16:56:14;1.70;99.90
51922;DHT22;37948;53.260;6.394;2022-12-08T16:58:42;1.60;99.90
51922;DHT22;37948;53.260;6.394;2022-12-08T17:01:12;1.60;99.90
51922;DHT22;37948;53.260;6.394;2022-12-08T17:03:39;1.60;99.90
51922;DHT22;37948;53.260;6.394;2022-12-08T17:06:09;1.60;99.90
51922;DHT22;37948;53.260;6.394;2022-12-08T17:08:36;1.60;99.90
51922;DHT22;37948;53.260;6.394;2022-12-08T17:11:02;1.60;99.90
51922;DHT22;37948;53.260;6.394;2022-12-08T17:13:35;1.60;99.90
51922;DHT22;37948;53.260;6.394;2022-12-08T17:16:01;1.60;99.90
51922;DHT22;37948;53.260;6.394;2022-12-08T17:18:27;1.50;99.90
51922;DHT22;37948;53.260;6.394;2022-12-08T17:20:53;1.50;99.90
51922;DHT22;37948;53.260;6.394;2022-12-08T17:23:18;1.50;99.90
51922;DHT22;37948;53.260;6.394;2022-12-08T17:25:44;1.50;99.90
51922;DHT22;37948;53.260;6.394;2022-12-08T17:28:20;1.50;99.90
51922;DHT22;37948;53.260;6.394;2022-12-08T17:30:46;1.50;99.90
51922;DHT22;37948;53.260;6.394;2022-12-08T17:33:11;1.50;99.90
51922;DHT22;37948;53.260;6.394;2022-12-08T17:35:37;1.50;99.90
51922;DHT22;37948;53.260;6.394;2022-12-08T17:38:02;1.50;99.90
51922;DHT22;37948;53.260;6.394;2022-12-08T17:40:28;1.50;99.90
51922;DHT22;37948;53.260;6.394;2022-12-08T17:42:53;1.40;99.90
51922;DHT22;37948;53.260;6.394;2022-12-08T17:45:19;1.50;99.90
51922;DHT22;37948;53.260;6.394;2022-12-08T17:47:45;1.40;99.90
51922;DHT22;37948;53.260;6.394;2022-12-08T17:50:10;1.40;99.90
51922;DHT22;37948;53.260;6.394;2022-12-08T17:52:36;1.40;99.90
51922;DHT22;37948;53.260;6.394;2022-12-08T17:55:02;1.40;99.90
51922;DHT22;37948;53.260;6.394;2022-12-08T17:57:28;1.40;99.90
51922;DHT22;37948;53.260;6.394;2022-12-08T17:59:53;1.40;99.90
51922;DHT22;37948;53.260;6.394;2022-12-08T18:02:19;1.40;99.90
51922;DHT22;37948;53.260;6.394;2022-12-08T18:04:45;1.40;99.90